sensor_id;sensor_type;location;lat;lon;timestamp;P1;durP1;ratioP1;P2;durP2;ratioP2
60312;SDS011;46158;52.850;6.970;2022-07-23T00:02:05;5.28;;;2.00;;
60312;SDS011;46158;52.850;6.970;2022-07-23T00:04:31;6.32;;;2.30;;
60312;SDS011;46158;52.850;6.970;2022-07-23T00:06:58;3.10;;;1.90;;
60312;SDS011;46158;52.850;6.970;2022-07-23T00:09:23;3.15;;;2.00;;
60312;SDS011;46158;52.850;6.970;2022-07-23T00:11:49;3.25;;;1.88;;
60312;SDS011;46158;52.850;6.970;2022-07-23T00:14:15;3.83;;;2.00;;
60312;SDS011;46158;52.850;6.970;2022-07-23T00:16:40;7.38;;;1.90;;
60312;SDS011;46158;52.850;6.970;2022-07-23T00:19:06;7.78;;;2.20;;
60312;SDS011;46158;52.850;6.970;2022-07-23T00:21:32;2.92;;;1.65;;
60312;SDS011;46158;52.850;6.970;2022-07-23T00:23:57;2.60;;;1.95;;
60312;SDS011;46158;52.850;6.970;2022-07-23T00:26:23;4.00;;;2.00;;
60312;SDS011;46158;52.850;6.970;2022-07-23T00:28:49;6.50;;;2.15;;
60312;SDS011;46158;52.850;6.970;2022-07-23T00:31:14;6.40;;;2.00;;
60312;SDS011;46158;52.850;6.970;2022-07-23T00:33:40;6.10;;;2.00;;
60312;SDS011;46158;52.850;6.970;2022-07-23T00:36:06;3.72;;;1.90;;
60312;SDS011;46158;52.850;6.970;2022-07-23T00:38:32;6.35;;;2.10;;
60312;SDS011;46158;52.850;6.970;2022-07-23T00:40:57;5.25;;;2.20;;
60312;SDS011;46158;52.850;6.970;2022-07-23T00:43:23;3.60;;;2.15;;
60312;SDS011;46158;52.850;6.970;2022-07-23T00:45:50;5.57;;;1.98;;
60312;SDS011;46158;52.850;6.970;2022-07-23T00:48:15;5.25;;;2.08;;
60312;SDS011;46158;52.850;6.970;2022-07-23T00:50:42;5.25;;;1.90;;
60312;SDS011;46158;52.850;6.970;2022-07-23T00:53:08;6.32;;;2.47;;
60312;SDS011;46158;52.850;6.970;2022-07-23T00:55:34;2.85;;;1.90;;
60312;SDS011;46158;52.850;6.970;2022-07-23T00:58:00;5.32;;;2.53;;
60312;SDS011;46158;52.850;6.970;2022-07-23T01:00:27;3.60;;;1.83;;
60312;SDS011;46158;52.850;6.970;2022-07-23T01:02:53;5.50;;;1.80;;
60312;SDS011;46158;52.850;6.970;2022-07-23T01:05:20;5.05;;;2.05;;
60312;SDS011;46158;52.850;6.970;2022-07-23T01:07:47;4.43;;;1.85;;
60312;SDS011;46158;52.850;6.970;2022-07-23T01:10:14;2.95;;;2.00;;
60312;SDS011;46158;52.850;6.970;2022-07-23T01:13:02;2.90;;;1.80;;
60312;SDS011;46158;52.850;6.970;2022-07-23T01:15:29;4.93;;;1.95;;
60312;SDS011;46158;52.850;6.970;2022-07-23T01:17:56;1.95;;;1.75;;
60312;SDS011;46158;52.850;6.970;2022-07-23T01:20:22;3.80;;;1.88;;
60312;SDS011;46158;52.850;6.970;2022-07-23T01:22:48;3.60;;;1.90;;
60312;SDS011;46158;52.850;6.970;2022-07-23T01:25:14;2.35;;;1.77;;
60312;SDS011;46158;52.850;6.970;2022-07-23T01:27:40;4.38;;;2.13;;
60312;SDS011;46158;52.850;6.970;2022-07-23T01:30:06;1.70;;;1.58;;
60312;SDS011;46158;52.850;6.970;2022-07-23T01:32:32;3.15;;;1.70;;
60312;SDS011;46158;52.850;6.970;2022-07-23T01:34:58;1.90;;;1.70;;
60312;SDS011;46158;52.850;6.970;2022-07-23T01:37:23;1.90;;;1.70;;
60312;SDS011;46158;52.850;6.970;2022-07-23T01:39:49;1.80;;;1.60;;
60312;SDS011;46158;52.850;6.970;2022-07-23T01:42:15;1.75;;;1.65;;
60312;SDS011;46158;52.850;6.970;2022-07-23T01:44:40;3.67;;;1.80;;
60312;SDS011;46158;52.850;6.970;2022-07-23T01:47:06;2.28;;;1.85;;
60312;SDS011;46158;52.850;6.970;2022-07-23T01:49:32;2.15;;;1.70;;
60312;SDS011;46158;52.850;6.970;2022-07-23T01:51:57;3.25;;;1.63;;
60312;SDS011;46158;52.850;6.970;2022-07-23T01:54:27;1.73;;;1.63;;
60312;SDS011;46158;52.850;6.970;2022-07-23T01:56:54;1.92;;;1.70;;
60312;SDS011;46158;52.850;6.970;2022-07-23T01:59:20;3.22;;;1.65;;
60312;SDS011;46158;52.850;6.970;2022-07-23T02:01:46;4.05;;;1.73;;
60312;SDS011;46158;52.850;6.970;2022-07-23T02:04:11;1.70;;;1.60;;
60312;SDS011;46158;52.850;6.970;2022-07-23T02:06:37;2.65;;;1.70;;
60312;SDS011;46158;52.850;6.970;2022-07-23T02:09:02;3.00;;;1.80;;
60312;SDS011;46158;52.850;6.970;2022-07-23T02:11:28;4.43;;;1.90;;
60312;SDS011;46158;52.850;6.970;2022-07-23T02:13:54;3.35;;;1.80;;
60312;SDS011;46158;52.850;6.970;2022-07-23T02:16:19;2.03;;;1.83;;
60312;SDS011;46158;52.850;6.970;2022-07-23T02:18:45;2.17;;;1.75;;
60312;SDS011;46158;52.850;6.970;2022-07-23T02:21:11;1.80;;;1.70;;
60312;SDS011;46158;52.850;6.970;2022-07-23T02:23:37;3.65;;;1.90;;
60312;SDS011;46158;52.850;6.970;2022-07-23T02:26:03;2.30;;;1.90;;
60312;SDS011;46158;52.850;6.970;2022-07-23T02:28:29;2.33;;;1.85;;
60312;SDS011;46158;52.850;6.970;2022-07-23T02:30:54;2.88;;;1.85;;
60312;SDS011;46158;52.850;6.970;2022-07-23T02:33:20;2.10;;;1.70;;
60312;SDS011;46158;52.850;6.970;2022-07-23T02:35:45;2.83;;;1.80;;
60312;SDS011;46158;52.850;6.970;2022-07-23T02:38:11;3.17;;;2.05;;
60312;SDS011;46158;52.850;6.970;2022-07-23T02:40:37;3.80;;;2.00;;
60312;SDS011;46158;52.850;6.970;2022-07-23T02:43:03;3.03;;;1.80;;
60312;SDS011;46158;52.850;6.970;2022-07-23T02:45:29;2.17;;;1.90;;
60312;SDS011;46158;52.850;6.970;2022-07-23T02:47:55;2.60;;;1.80;;
60312;SDS011;46158;52.850;6.970;2022-07-23T02:50:20;1.70;;;1.60;;
60312;SDS011;46158;52.850;6.970;2022-07-23T02:52:46;3.15;;;1.88;;
60312;SDS011;46158;52.850;6.970;2022-07-23T02:55:12;3.20;;;1.80;;
60312;SDS011;46158;52.850;6.970;2022-07-23T02:57:37;3.92;;;1.90;;
60312;SDS011;46158;52.850;6.970;2022-07-23T03:00:03;3.40;;;1.90;;
60312;SDS011;46158;52.850;6.970;2022-07-23T03:02:31;2.00;;;1.55;;
60312;SDS011;46158;52.850;6.970;2022-07-23T03:04:57;1.90;;;1.80;;
60312;SDS011;46158;52.850;6.970;2022-07-23T03:07:22;3.45;;;1.80;;
60312;SDS011;46158;52.850;6.970;2022-07-23T03:09:48;2.22;;;1.75;;
60312;SDS011;46158;52.850;6.970;2022-07-23T03:12:14;3.85;;;1.77;;
60312;SDS011;46158;52.850;6.970;2022-07-23T03:14:40;3.17;;;1.73;;
60312;SDS011;46158;52.850;6.970;2022-07-23T03:17:06;3.33;;;1.60;;
60312;SDS011;46158;52.850;6.970;2022-07-23T03:19:32;1.92;;;1.73;;
60312;SDS011;46158;52.850;6.970;2022-07-23T03:21:58;3.95;;;1.80;;
60312;SDS011;46158;52.850;6.970;2022-07-23T03:24:23;3.80;;;1.83;;
60312;SDS011;46158;52.850;6.970;2022-07-23T03:27:09;1.85;;;1.60;;
60312;SDS011;46158;52.850;6.970;2022-07-23T03:29:34;2.30;;;1.80;;
60312;SDS011;46158;52.850;6.970;2022-07-23T03:32:02;3.63;;;1.80;;
60312;SDS011;46158;52.850;6.970;2022-07-23T03:34:28;1.70;;;1.60;;
60312;SDS011;46158;52.850;6.970;2022-07-23T03:36:54;2.50;;;1.67;;
60312;SDS011;46158;52.850;6.970;2022-07-23T03:39:19;1.77;;;1.63;;
60312;SDS011;46158;52.850;6.970;2022-07-23T03:41:45;3.08;;;1.80;;
60312;SDS011;46158;52.850;6.970;2022-07-23T03:44:11;2.55;;;1.70;;
60312;SDS011;46158;52.850;6.970;2022-07-23T03:46:36;3.00;;;1.70;;
60312;SDS011;46158;52.850;6.970;2022-07-23T03:49:02;1.65;;;1.55;;
60312;SDS011;46158;52.850;6.970;2022-07-23T03:51:28;1.88;;;1.77;;
60312;SDS011;46158;52.850;6.970;2022-07-23T03:53:53;2.05;;;1.80;;
60312;SDS011;46158;52.850;6.970;2022-07-23T03:56:20;1.92;;;1.75;;
60312;SDS011;46158;52.850;6.970;2022-07-23T03:58:46;2.33;;;1.75;;
60312;SDS011;46158;52.850;6.970;2022-07-23T04:01:12;2.83;;;1.83;;
60312;SDS011;46158;52.850;6.970;2022-07-23T04:03:38;3.90;;;1.90;;
60312;SDS011;46158;52.850;6.970;2022-07-23T04:06:04;4.68;;;1.80;;
60312;SDS011;46158;52.850;6.970;2022-07-23T04:08:31;2.20;;;2.00;;
60312;SDS011;46158;52.850;6.970;2022-07-23T04:10:56;3.53;;;1.80;;
60312;SDS011;46158;52.850;6.970;2022-07-23T04:13:22;2.13;;;1.73;;
60312;SDS011;46158;52.850;6.970;2022-07-23T04:15:48;3.42;;;1.50;;
60312;SDS011;46158;52.850;6.970;2022-07-23T04:18:14;2.50;;;1.80;;
60312;SDS011;46158;52.850;6.970;2022-07-23T04:20:42;1.70;;;1.60;;
60312;SDS011;46158;52.850;6.970;2022-07-23T04:23:08;3.05;;;1.70;;
60312;SDS011;46158;52.850;6.970;2022-07-23T04:25:34;3.78;;;1.90;;
60312;SDS011;46158;52.850;6.970;2022-07-23T04:28:00;3.13;;;1.88;;
60312;SDS011;46158;52.850;6.970;2022-07-23T04:30:26;2.20;;;1.70;;
60312;SDS011;46158;52.850;6.970;2022-07-23T04:32:52;11.15;;;2.10;;
60312;SDS011;46158;52.850;6.970;2022-07-23T04:35:17;4.85;;;2.22;;
60312;SDS011;46158;52.850;6.970;2022-07-23T04:37:43;4.22;;;2.15;;
60312;SDS011;46158;52.850;6.970;2022-07-23T04:40:09;6.50;;;2.20;;
60312;SDS011;46158;52.850;6.970;2022-07-23T04:42:36;7.82;;;3.00;;
60312;SDS011;46158;52.850;6.970;2022-07-23T04:45:01;8.55;;;2.90;;
60312;SDS011;46158;52.850;6.970;2022-07-23T04:47:28;8.38;;;2.63;;
60312;SDS011;46158;52.850;6.970;2022-07-23T04:49:55;7.38;;;2.40;;
60312;SDS011;46158;52.850;6.970;2022-07-23T04:52:21;7.38;;;2.53;;
60312;SDS011;46158;52.850;6.970;2022-07-23T04:54:47;7.20;;;2.50;;
60312;SDS011;46158;52.850;6.970;2022-07-23T04:57:13;11.20;;;3.00;;
60312;SDS011;46158;52.850;6.970;2022-07-23T04:59:39;7.07;;;2.92;;
60312;SDS011;46158;52.850;6.970;2022-07-23T05:02:04;10.18;;;3.90;;
60312;SDS011;46158;52.850;6.970;2022-07-23T05:04:30;13.00;;;3.33;;
60312;SDS011;46158;52.850;6.970;2022-07-23T05:06:56;12.60;;;4.18;;
60312;SDS011;46158;52.850;6.970;2022-07-23T05:09:23;10.18;;;3.10;;
60312;SDS011;46158;52.850;6.970;2022-07-23T05:11:50;10.18;;;3.30;;
60312;SDS011;46158;52.850;6.970;2022-07-23T05:14:15;8.10;;;3.40;;
60312;SDS011;46158;52.850;6.970;2022-07-23T05:16:41;10.57;;;3.83;;
60312;SDS011;46158;52.850;6.970;2022-07-23T05:19:07;10.82;;;3.80;;
60312;SDS011;46158;52.850;6.970;2022-07-23T05:21:32;9.13;;;3.05;;
60312;SDS011;46158;52.850;6.970;2022-07-23T05:23:58;10.30;;;2.90;;
60312;SDS011;46158;52.850;6.970;2022-07-23T05:26:24;12.43;;;3.58;;
60312;SDS011;46158;52.850;6.970;2022-07-23T05:28:50;10.88;;;3.30;;
60312;SDS011;46158;52.850;6.970;2022-07-23T05:31:16;8.02;;;2.60;;
60312;SDS011;46158;52.850;6.970;2022-07-23T05:33:42;24.65;;;5.53;;
60312;SDS011;46158;52.850;6.970;2022-07-23T05:36:08;20.40;;;5.22;;
60312;SDS011;46158;52.850;6.970;2022-07-23T05:38:34;12.27;;;3.60;;
60312;SDS011;46158;52.850;6.970;2022-07-23T05:41:00;11.82;;;3.33;;
60312;SDS011;46158;52.850;6.970;2022-07-23T05:43:26;10.80;;;3.42;;
60312;SDS011;46158;52.850;6.970;2022-07-23T05:45:51;11.05;;;3.42;;
60312;SDS011;46158;52.850;6.970;2022-07-23T05:48:17;14.93;;;3.67;;
60312;SDS011;46158;52.850;6.970;2022-07-23T05:50:43;10.68;;;3.28;;
60312;SDS011;46158;52.850;6.970;2022-07-23T05:53:09;10.35;;;2.78;;
60312;SDS011;46158;52.850;6.970;2022-07-23T05:55:34;6.05;;;2.40;;
60312;SDS011;46158;52.850;6.970;2022-07-23T05:58:00;8.00;;;2.65;;
60312;SDS011;46158;52.850;6.970;2022-07-23T06:00:26;9.02;;;2.40;;
60312;SDS011;46158;52.850;6.970;2022-07-23T06:02:52;9.52;;;2.70;;
60312;SDS011;46158;52.850;6.970;2022-07-23T06:05:18;12.70;;;2.80;;
60312;SDS011;46158;52.850;6.970;2022-07-23T06:07:44;8.52;;;2.50;;
60312;SDS011;46158;52.850;6.970;2022-07-23T06:10:09;8.45;;;2.40;;
60312;SDS011;46158;52.850;6.970;2022-07-23T06:12:35;9.18;;;2.28;;
60312;SDS011;46158;52.850;6.970;2022-07-23T06:15:02;7.22;;;2.30;;
60312;SDS011;46158;52.850;6.970;2022-07-23T06:17:28;7.38;;;2.35;;
60312;SDS011;46158;52.850;6.970;2022-07-23T06:19:54;7.90;;;2.60;;
60312;SDS011;46158;52.850;6.970;2022-07-23T06:22:20;3.53;;;1.90;;
60312;SDS011;46158;52.850;6.970;2022-07-23T06:24:47;5.80;;;1.95;;
60312;SDS011;46158;52.850;6.970;2022-07-23T06:27:13;9.30;;;2.30;;
60312;SDS011;46158;52.850;6.970;2022-07-23T06:29:38;7.63;;;2.28;;
60312;SDS011;46158;52.850;6.970;2022-07-23T06:32:05;5.97;;;2.67;;
60312;SDS011;46158;52.850;6.970;2022-07-23T06:34:31;5.18;;;2.10;;
60312;SDS011;46158;52.850;6.970;2022-07-23T06:36:57;5.53;;;2.10;;
60312;SDS011;46158;52.850;6.970;2022-07-23T06:39:23;5.32;;;1.90;;
60312;SDS011;46158;52.850;6.970;2022-07-23T06:41:49;3.45;;;1.90;;
60312;SDS011;46158;52.850;6.970;2022-07-23T06:44:15;5.85;;;2.00;;
60312;SDS011;46158;52.850;6.970;2022-07-23T06:46:40;9.93;;;2.20;;
60312;SDS011;46158;52.850;6.970;2022-07-23T06:49:07;8.50;;;2.15;;
60312;SDS011;46158;52.850;6.970;2022-07-23T06:51:32;7.18;;;1.90;;
60312;SDS011;46158;52.850;6.970;2022-07-23T06:53:58;6.53;;;2.13;;
60312;SDS011;46158;52.850;6.970;2022-07-23T06:56:24;6.85;;;1.92;;
60312;SDS011;46158;52.850;6.970;2022-07-23T06:58:50;5.10;;;2.15;;
60312;SDS011;46158;52.850;6.970;2022-07-23T07:01:16;5.22;;;2.00;;
60312;SDS011;46158;52.850;6.970;2022-07-23T07:03:41;4.60;;;1.98;;
60312;SDS011;46158;52.850;6.970;2022-07-23T07:06:07;3.55;;;1.73;;
60312;SDS011;46158;52.850;6.970;2022-07-23T07:08:33;8.85;;;2.17;;
60312;SDS011;46158;52.850;6.970;2022-07-23T07:10:59;4.13;;;2.00;;
60312;SDS011;46158;52.850;6.970;2022-07-23T07:13:24;5.88;;;2.10;;
60312;SDS011;46158;52.850;6.970;2022-07-23T07:15:50;6.30;;;2.20;;
60312;SDS011;46158;52.850;6.970;2022-07-23T07:18:16;7.03;;;2.10;;
60312;SDS011;46158;52.850;6.970;2022-07-23T07:20:41;6.05;;;2.20;;
60312;SDS011;46158;52.850;6.970;2022-07-23T07:23:07;3.20;;;1.85;;
60312;SDS011;46158;52.850;6.970;2022-07-23T07:25:33;4.55;;;2.03;;
60312;SDS011;46158;52.850;6.970;2022-07-23T07:27:59;2.78;;;1.90;;
60312;SDS011;46158;52.850;6.970;2022-07-23T07:30:24;4.38;;;2.00;;
60312;SDS011;46158;52.850;6.970;2022-07-23T07:32:50;4.47;;;2.08;;
60312;SDS011;46158;52.850;6.970;2022-07-23T07:35:16;4.38;;;1.80;;
60312;SDS011;46158;52.850;6.970;2022-07-23T07:37:41;5.20;;;1.88;;
60312;SDS011;46158;52.850;6.970;2022-07-23T07:40:07;5.13;;;1.88;;
60312;SDS011;46158;52.850;6.970;2022-07-23T07:42:33;3.28;;;1.92;;
60312;SDS011;46158;52.850;6.970;2022-07-23T07:44:59;5.18;;;2.00;;
60312;SDS011;46158;52.850;6.970;2022-07-23T07:47:25;4.15;;;1.83;;
60312;SDS011;46158;52.850;6.970;2022-07-23T07:49:50;4.75;;;1.75;;
60312;SDS011;46158;52.850;6.970;2022-07-23T07:52:16;4.82;;;1.90;;
60312;SDS011;46158;52.850;6.970;2022-07-23T07:54:41;5.40;;;2.10;;
60312;SDS011;46158;52.850;6.970;2022-07-23T07:57:08;4.35;;;1.98;;
60312;SDS011;46158;52.850;6.970;2022-07-23T07:59:33;3.83;;;1.92;;
60312;SDS011;46158;52.850;6.970;2022-07-23T08:01:59;5.72;;;2.00;;
60312;SDS011;46158;52.850;6.970;2022-07-23T08:04:25;4.45;;;2.03;;
60312;SDS011;46158;52.850;6.970;2022-07-23T08:06:50;4.30;;;1.90;;
60312;SDS011;46158;52.850;6.970;2022-07-23T08:09:16;5.32;;;1.88;;
60312;SDS011;46158;52.850;6.970;2022-07-23T08:11:42;3.45;;;1.85;;
60312;SDS011;46158;52.850;6.970;2022-07-23T08:14:07;3.78;;;1.92;;
60312;SDS011;46158;52.850;6.970;2022-07-23T08:16:34;3.80;;;2.03;;
60312;SDS011;46158;52.850;6.970;2022-07-23T08:18:59;2.95;;;1.63;;
60312;SDS011;46158;52.850;6.970;2022-07-23T08:21:25;3.83;;;1.90;;
60312;SDS011;46158;52.850;6.970;2022-07-23T08:23:51;2.10;;;1.80;;
60312;SDS011;46158;52.850;6.970;2022-07-23T08:26:16;3.13;;;2.05;;
60312;SDS011;46158;52.850;6.970;2022-07-23T08:28:42;2.17;;;1.83;;
60312;SDS011;46158;52.850;6.970;2022-07-23T08:31:08;3.80;;;2.00;;
60312;SDS011;46158;52.850;6.970;2022-07-23T08:33:36;4.78;;;1.70;;
60312;SDS011;46158;52.850;6.970;2022-07-23T08:36:02;6.57;;;2.03;;
60312;SDS011;46158;52.850;6.970;2022-07-23T08:38:29;3.65;;;1.80;;
60312;SDS011;46158;52.850;6.970;2022-07-23T08:40:55;5.45;;;1.88;;
60312;SDS011;46158;52.850;6.970;2022-07-23T08:43:26;4.10;;;1.90;;
60312;SDS011;46158;52.850;6.970;2022-07-23T08:45:57;2.13;;;1.73;;
60312;SDS011;46158;52.850;6.970;2022-07-23T08:48:24;3.03;;;1.63;;
60312;SDS011;46158;52.850;6.970;2022-07-23T08:50:52;3.97;;;1.60;;
60312;SDS011;46158;52.850;6.970;2022-07-23T08:55:48;3.28;;;1.60;;
60312;SDS011;46158;52.850;6.970;2022-07-23T08:58:16;3.05;;;1.50;;
60312;SDS011;46158;52.850;6.970;2022-07-23T09:00:43;4.05;;;1.90;;
60312;SDS011;46158;52.850;6.970;2022-07-23T09:03:17;3.40;;;1.80;;
60312;SDS011;46158;52.850;6.970;2022-07-23T09:05:45;3.00;;;1.65;;
60312;SDS011;46158;52.850;6.970;2022-07-23T09:08:12;3.30;;;1.80;;
60312;SDS011;46158;52.850;6.970;2022-07-23T09:10:58;2.85;;;1.60;;
60312;SDS011;46158;52.850;6.970;2022-07-23T09:13:25;3.42;;;1.90;;
60312;SDS011;46158;52.850;6.970;2022-07-23T09:15:54;2.30;;;1.70;;
60312;SDS011;46158;52.850;6.970;2022-07-23T09:18:27;2.42;;;1.50;;
60312;SDS011;46158;52.850;6.970;2022-07-23T09:21:07;2.55;;;1.48;;
60312;SDS011;46158;52.850;6.970;2022-07-23T09:26:23;1.67;;;1.48;;
60312;SDS011;46158;52.850;6.970;2022-07-23T09:29:12;2.75;;;1.80;;
60312;SDS011;46158;52.850;6.970;2022-07-23T09:31:59;3.00;;;1.52;;
60312;SDS011;46158;52.850;6.970;2022-07-23T09:34:33;1.63;;;1.50;;
60312;SDS011;46158;52.850;6.970;2022-07-23T09:39:43;1.90;;;1.55;;
60312;SDS011;46158;52.850;6.970;2022-07-23T09:42:23;2.65;;;1.65;;
60312;SDS011;46158;52.850;6.970;2022-07-23T09:44:51;2.15;;;1.52;;
60312;SDS011;46158;52.850;6.970;2022-07-23T09:47:18;1.90;;;1.65;;
60312;SDS011;46158;52.850;6.970;2022-07-23T09:50:01;3.47;;;1.77;;
60312;SDS011;46158;52.850;6.970;2022-07-23T09:52:43;3.47;;;1.45;;
60312;SDS011;46158;52.850;6.970;2022-07-23T09:55:13;1.50;;;1.40;;
60312;SDS011;46158;52.850;6.970;2022-07-23T09:57:40;1.95;;;1.60;;
60312;SDS011;46158;52.850;6.970;2022-07-23T10:00:08;3.53;;;1.60;;
60312;SDS011;46158;52.850;6.970;2022-07-23T10:02:35;2.35;;;1.60;;
60312;SDS011;46158;52.850;6.970;2022-07-23T10:05:02;3.50;;;1.50;;
60312;SDS011;46158;52.850;6.970;2022-07-23T10:07:30;2.15;;;1.60;;
60312;SDS011;46158;52.850;6.970;2022-07-23T10:09:59;3.15;;;1.50;;
60312;SDS011;46158;52.850;6.970;2022-07-23T10:12:26;1.55;;;1.45;;
60312;SDS011;46158;52.850;6.970;2022-07-23T10:14:58;1.30;;;1.30;;
60312;SDS011;46158;52.850;6.970;2022-07-23T10:17:25;1.50;;;1.40;;
60312;SDS011;46158;52.850;6.970;2022-07-23T10:19:52;1.52;;;1.42;;
60312;SDS011;46158;52.850;6.970;2022-07-23T10:22:31;2.03;;;1.38;;
60312;SDS011;46158;52.850;6.970;2022-07-23T10:35:34;1.65;;;1.55;;
60312;SDS011;46158;52.850;6.970;2022-07-23T10:38:07;1.48;;;1.38;;
60312;SDS011;46158;52.850;6.970;2022-07-23T10:40:38;2.15;;;1.60;;
60312;SDS011;46158;52.850;6.970;2022-07-23T10:43:21;3.85;;;1.45;;
60312;SDS011;46158;52.850;6.970;2022-07-23T10:45:46;1.50;;;1.40;;
60312;SDS011;46158;52.850;6.970;2022-07-23T10:51:05;3.63;;;1.58;;
60312;SDS011;46158;52.850;6.970;2022-07-23T10:59:20;1.70;;;1.58;;
60312;SDS011;46158;52.850;6.970;2022-07-23T11:01:45;1.20;;;1.15;;
60312;SDS011;46158;52.850;6.970;2022-07-23T11:04:11;1.95;;;1.58;;
60312;SDS011;46158;52.850;6.970;2022-07-23T11:09:29;1.70;;;1.60;;
60312;SDS011;46158;52.850;6.970;2022-07-23T11:27:46;2.78;;;1.83;;
60312;SDS011;46158;52.850;6.970;2022-07-23T11:33:38;1.98;;;1.40;;
60312;SDS011;46158;52.850;6.970;2022-07-23T11:35:40;1.58;;;1.48;;
60312;SDS011;46158;52.850;6.970;2022-07-23T11:38:07;1.42;;;1.33;;
60312;SDS011;46158;52.850;6.970;2022-07-23T11:40:36;3.83;;;1.52;;
60312;SDS011;46158;52.850;6.970;2022-07-23T11:43:06;1.95;;;1.50;;
60312;SDS011;46158;52.850;6.970;2022-07-23T11:45:40;2.53;;;1.30;;
60312;SDS011;46158;52.850;6.970;2022-07-23T11:50:43;1.65;;;1.55;;
60312;SDS011;46158;52.850;6.970;2022-07-23T11:53:08;1.80;;;1.70;;
60312;SDS011;46158;52.850;6.970;2022-07-23T11:55:34;2.95;;;1.40;;
60312;SDS011;46158;52.850;6.970;2022-07-23T11:58:00;3.58;;;1.52;;
60312;SDS011;46158;52.850;6.970;2022-07-23T12:00:27;3.42;;;1.58;;
60312;SDS011;46158;52.850;6.970;2022-07-23T12:02:56;2.50;;;1.65;;
60312;SDS011;46158;52.850;6.970;2022-07-23T12:05:28;1.42;;;1.30;;
60312;SDS011;46158;52.850;6.970;2022-07-23T12:07:56;3.22;;;1.40;;
60312;SDS011;46158;52.850;6.970;2022-07-23T12:13:05;1.40;;;1.30;;
60312;SDS011;46158;52.850;6.970;2022-07-23T12:15:40;3.53;;;1.45;;
60312;SDS011;46158;52.850;6.970;2022-07-23T12:18:08;2.90;;;1.45;;
60312;SDS011;46158;52.850;6.970;2022-07-23T12:20:46;2.67;;;1.58;;
60312;SDS011;46158;52.850;6.970;2022-07-23T12:23:15;2.00;;;1.50;;
60312;SDS011;46158;52.850;6.970;2022-07-23T12:25:43;1.58;;;1.48;;
60312;SDS011;46158;52.850;6.970;2022-07-23T12:28:11;1.48;;;1.35;;
60312;SDS011;46158;52.850;6.970;2022-07-23T12:30:40;1.52;;;1.42;;
60312;SDS011;46158;52.850;6.970;2022-07-23T12:33:08;1.80;;;1.60;;
60312;SDS011;46158;52.850;6.970;2022-07-23T12:35:38;1.60;;;1.50;;
60312;SDS011;46158;52.850;6.970;2022-07-23T12:38:07;2.45;;;1.60;;
60312;SDS011;46158;52.850;6.970;2022-07-23T12:40:36;1.65;;;1.55;;
60312;SDS011;46158;52.850;6.970;2022-07-23T12:43:10;1.52;;;1.42;;
60312;SDS011;46158;52.850;6.970;2022-07-23T12:45:47;2.83;;;1.50;;
60312;SDS011;46158;52.850;6.970;2022-07-23T12:48:37;4.18;;;1.77;;
60312;SDS011;46158;52.850;6.970;2022-07-23T12:53:42;1.90;;;1.67;;
60312;SDS011;46158;52.850;6.970;2022-07-23T12:56:17;1.70;;;1.60;;
60312;SDS011;46158;52.850;6.970;2022-07-23T12:59:07;2.60;;;1.70;;
60312;SDS011;46158;52.850;6.970;2022-07-23T13:06:49;1.92;;;1.67;;
60312;SDS011;46158;52.850;6.970;2022-07-23T13:09:20;3.30;;;1.67;;
60312;SDS011;46158;52.850;6.970;2022-07-23T13:11:48;4.20;;;2.15;;
60312;SDS011;46158;52.850;6.970;2022-07-23T13:14:15;1.80;;;1.70;;
60312;SDS011;46158;52.850;6.970;2022-07-23T13:16:42;3.08;;;1.75;;
60312;SDS011;46158;52.850;6.970;2022-07-23T13:19:09;1.98;;;1.77;;
60312;SDS011;46158;52.850;6.970;2022-07-23T13:21:35;2.28;;;1.83;;
60312;SDS011;46158;52.850;6.970;2022-07-23T13:24:01;2.90;;;1.70;;
60312;SDS011;46158;52.850;6.970;2022-07-23T13:26:26;1.92;;;1.60;;
60312;SDS011;46158;52.850;6.970;2022-07-23T13:28:53;2.38;;;1.70;;
60312;SDS011;46158;52.850;6.970;2022-07-23T13:31:19;2.33;;;1.80;;
60312;SDS011;46158;52.850;6.970;2022-07-23T13:33:45;2.53;;;1.67;;
60312;SDS011;46158;52.850;6.970;2022-07-23T13:36:11;3.42;;;2.03;;
60312;SDS011;46158;52.850;6.970;2022-07-23T13:38:37;2.78;;;1.77;;
60312;SDS011;46158;52.850;6.970;2022-07-23T13:41:03;3.47;;;1.80;;
60312;SDS011;46158;52.850;6.970;2022-07-23T13:43:29;3.55;;;1.83;;
60312;SDS011;46158;52.850;6.970;2022-07-23T13:45:56;2.17;;;1.60;;
60312;SDS011;46158;52.850;6.970;2022-07-23T13:48:21;2.45;;;1.70;;
60312;SDS011;46158;52.850;6.970;2022-07-23T13:50:48;4.35;;;1.83;;
60312;SDS011;46158;52.850;6.970;2022-07-23T13:53:16;1.98;;;1.70;;
60312;SDS011;46158;52.850;6.970;2022-07-23T13:55:43;2.40;;;1.77;;
60312;SDS011;46158;52.850;6.970;2022-07-23T13:58:10;1.83;;;1.65;;
60312;SDS011;46158;52.850;6.970;2022-07-23T14:00:38;2.50;;;1.85;;
60312;SDS011;46158;52.850;6.970;2022-07-23T14:03:06;1.80;;;1.70;;
60312;SDS011;46158;52.850;6.970;2022-07-23T14:05:32;3.60;;;1.80;;
60312;SDS011;46158;52.850;6.970;2022-07-23T14:07:58;2.28;;;1.85;;
60312;SDS011;46158;52.850;6.970;2022-07-23T14:10:24;1.83;;;1.70;;
60312;SDS011;46158;52.850;6.970;2022-07-23T14:12:50;2.75;;;1.80;;
60312;SDS011;46158;52.850;6.970;2022-07-23T14:15:24;1.92;;;1.80;;
60312;SDS011;46158;52.850;6.970;2022-07-23T14:17:52;3.22;;;1.85;;
60312;SDS011;46158;52.850;6.970;2022-07-23T14:20:18;2.15;;;1.83;;
60312;SDS011;46158;52.850;6.970;2022-07-23T14:22:44;3.50;;;1.80;;
60312;SDS011;46158;52.850;6.970;2022-07-23T14:25:10;2.08;;;1.80;;
60312;SDS011;46158;52.850;6.970;2022-07-23T14:27:36;5.18;;;2.00;;
60312;SDS011;46158;52.850;6.970;2022-07-23T14:30:06;2.83;;;1.90;;
60312;SDS011;46158;52.850;6.970;2022-07-23T14:32:33;2.65;;;1.80;;
60312;SDS011;46158;52.850;6.970;2022-07-23T14:34:59;3.15;;;1.70;;
60312;SDS011;46158;52.850;6.970;2022-07-23T14:37:25;2.63;;;1.80;;
60312;SDS011;46158;52.850;6.970;2022-07-23T14:39:51;2.38;;;1.77;;
60312;SDS011;46158;52.850;6.970;2022-07-23T14:42:17;2.17;;;1.90;;
60312;SDS011;46158;52.850;6.970;2022-07-23T14:44:43;3.13;;;1.67;;
60312;SDS011;46158;52.850;6.970;2022-07-23T14:47:09;1.90;;;1.80;;
60312;SDS011;46158;52.850;6.970;2022-07-23T14:49:35;2.70;;;1.75;;
60312;SDS011;46158;52.850;6.970;2022-07-23T14:52:01;4.75;;;2.08;;
60312;SDS011;46158;52.850;6.970;2022-07-23T14:54:28;3.00;;;2.10;;
60312;SDS011;46158;52.850;6.970;2022-07-23T14:56:55;2.45;;;1.88;;
60312;SDS011;46158;52.850;6.970;2022-07-23T14:59:22;2.65;;;1.70;;
60312;SDS011;46158;52.850;6.970;2022-07-23T15:01:49;5.53;;;2.03;;
60312;SDS011;46158;52.850;6.970;2022-07-23T15:04:15;1.85;;;1.70;;
60312;SDS011;46158;52.850;6.970;2022-07-23T15:06:40;1.70;;;1.60;;
60312;SDS011;46158;52.850;6.970;2022-07-23T15:09:06;4.25;;;2.08;;
60312;SDS011;46158;52.850;6.970;2022-07-23T15:11:35;4.03;;;1.70;;
60312;SDS011;46158;52.850;6.970;2022-07-23T15:16:29;2.08;;;1.73;;
60312;SDS011;46158;52.850;6.970;2022-07-23T15:18:54;2.78;;;1.90;;
60312;SDS011;46158;52.850;6.970;2022-07-23T15:21:20;2.30;;;1.63;;
60312;SDS011;46158;52.850;6.970;2022-07-23T15:23:47;1.73;;;1.63;;
60312;SDS011;46158;52.850;6.970;2022-07-23T15:26:13;2.78;;;1.92;;
60312;SDS011;46158;52.850;6.970;2022-07-23T15:28:40;2.25;;;1.50;;
60312;SDS011;46158;52.850;6.970;2022-07-23T15:31:06;3.28;;;1.80;;
60312;SDS011;46158;52.850;6.970;2022-07-23T15:33:33;1.90;;;1.73;;
60312;SDS011;46158;52.850;6.970;2022-07-23T15:36:00;3.20;;;1.90;;
60312;SDS011;46158;52.850;6.970;2022-07-23T15:38:27;3.55;;;1.77;;
60312;SDS011;46158;52.850;6.970;2022-07-23T15:40:56;3.22;;;1.90;;
60312;SDS011;46158;52.850;6.970;2022-07-23T15:43:22;2.85;;;1.90;;
60312;SDS011;46158;52.850;6.970;2022-07-23T15:45:49;3.28;;;2.00;;
60312;SDS011;46158;52.850;6.970;2022-07-23T15:48:15;2.00;;;1.85;;
60312;SDS011;46158;52.850;6.970;2022-07-23T15:50:42;2.85;;;1.73;;
60312;SDS011;46158;52.850;6.970;2022-07-23T15:53:08;2.00;;;1.60;;